Share

Hathaway, MT

Wiley (KMLS) Elev 2628 ft | 46.43 °N, 105.88 °W | Change Station

Current weather conditions updated 27 minutes ago

Clear
Clear
63 °F
Feels Like 63 °F
N
15
Wind Variable Wind from WNW
Gusts 24 mph
Sunrise 6:12 AM
Sunset 7:56 PM
Moon Waning Gibbous

Today is forecast to be Warmer than yesterday.

Pressure 29.62 in
Visibility 10.0 miles
Clouds Clear
Dew Point 37 °F
Humidity 38%
Rainfall 0.00 in
Snow Depth Not available.
UV 9 out of 16
Pollen 9.20 out of 12
Air Quality Not available.
Flu Activity Sporadic
METAR KMLS 181953Z AUTO 29013G21KT 10SM CLR 17/03 A2963 RMK AO2 SLP030 T01720028

More Conditions Fewer Conditions

Pressure 29.62 in
Visibility 10.0 miles
Clouds Clear
Dew Point 37 °F
Humidity 38%
Rainfall 0.00 in
Snow Depth Not available.
UV 9 out of 16
Pollen 9.20 out of 12
Air Quality Not available.
Flu Activity Sporadic
METAR KMLS 181953Z AUTO 29013G21KT 10SM CLR 17/03 A2963 RMK AO2 SLP030 T01720028

More Conditions Fewer Conditions

10-Day Weather Forecast

Almanac

Astronomy

Apr. 18, 2014 Rise Set
Actual Time 6:12 AM MDT 7:56 PM MDT
Civil Twilight 5:40 AM MDT 8:28 PM MDT
Nautical Twilight 5:02 AM MDT 9:07 PM MDT
Astronomical Twilight 4:20 AM MDT 9:49 PM MDT
Moon 11:52 PM MDT 8:29 AM MDT
Length of Visible Light 14h 47m
Length of Day
13h 43m
Tomorrow will be 3m 6s longer.
Waning Gibbous, 86% of the Moon is Illuminated
Today
Waning Gibbous
Apr 22
Last Quarter
Apr 29
New
May 6
First Quarter
May 14
Full

Today's Extremes

State Highs State Lows

Community

  • What's for Lunch?
    What's for Lunch?
  • SUNRISE THROUGH THE TREES.
    SUNRISE THROUGH THE TREES.
  • Dog Wood Blossoms
    Dog Wood Blossoms
  • Morning Light
    Morning Light
  • New Day
    New Day

WunderPhotos

Upload Photos

1,702,492 photos uploaded!

WunderBlogs® & News

Nearby

Snow Depth

Station Depth Elevation
Crystal Lake 57 in 6050 ft
Cole Creek 79 in 7850 ft
Burnt Mountain 29 in 5880 ft
White Mill 96 in 8700 ft
Daisy Peak 50 in 7600 ft

Coastal Water Temperatures

Place Temperature
No Stations Reporting

Earthquake Activity

City Distance Mag. Time & Date
No recent earthquake activity has been reported nearby.
Minimum magnitude displayed is 2.5.

Nearby Weather Stations

Station Location Temp. Dew Point Humidity Wind Precip. Elev Updated Type
Forsyth, MT 62.6 °F 41 °F 45% WNW  at  21.2 mph 0.00 in / hr 2785 ft 2:20 PM MDT Rapid Fire

Show More Stations Show Fewer Stations

What do you think?

We're not finished. Please let us know what you like, what you don't like, and what you are still missing.